createdAt,value
2022-09-04T00:02:28.439Z,5.03
2022-09-04T00:05:26.458Z,4.70
2022-09-04T00:08:25.159Z,5.20
2022-09-04T00:10:59.479Z,6.55
2022-09-04T00:13:46.013Z,5.28
2022-09-04T00:16:44.984Z,4.70
2022-09-04T00:19:59.618Z,4.72
2022-09-04T00:22:53.169Z,5.03
2022-09-04T00:25:58.773Z,6.97
2022-09-04T00:28:45.576Z,6.60
2022-09-04T00:31:39.299Z,5.43
2022-09-04T00:34:15.493Z,5.45
2022-09-04T00:36:50.283Z,5.07
2022-09-04T00:39:34.173Z,5.03
2022-09-04T00:42:37.793Z,4.97
2022-09-04T00:45:47.421Z,5.18
2022-09-04T00:48:55.354Z,5.35
2022-09-04T00:52:36.434Z,6.30
2022-09-04T00:55:46.593Z,5.05
2022-09-04T00:58:43.514Z,5.63
2022-09-04T01:01:25.541Z,5.05
2022-09-04T01:07:51.743Z,5.82
2022-09-04T01:10:54.229Z,6.10
2022-09-04T01:13:27.054Z,4.80
2022-09-04T01:16:05.602Z,4.90
2022-09-04T01:18:58.314Z,4.60
2022-09-04T01:22:02.756Z,5.05
2022-09-04T01:25:11.388Z,4.95
2022-09-04T01:27:56.383Z,5.60
2022-09-04T01:30:24.969Z,5.20
2022-09-04T01:33:35.514Z,5.07
2022-09-04T01:36:28.111Z,5.05
2022-09-04T01:39:01.388Z,6.28
2022-09-04T01:42:00.696Z,5.53
2022-09-04T01:44:28.490Z,5.40
2022-09-04T01:47:11.730Z,5.97
2022-09-04T01:49:45.899Z,6.07
2022-09-04T01:52:33.948Z,5.30
2022-09-04T01:55:09.184Z,7.07
2022-09-04T01:57:54.834Z,6.38
2022-09-04T02:00:25.075Z,6.43
2022-09-04T02:03:16.554Z,6.27
2022-09-04T02:05:49.036Z,5.38
2022-09-04T02:08:44.484Z,5.85
2022-09-04T02:11:28.068Z,5.38
2022-09-04T02:14:18.133Z,5.70
2022-09-04T02:17:10.554Z,4.78
2022-09-04T02:20:00.203Z,5.30
2022-09-04T02:22:36.465Z,4.80
2022-09-04T02:25:25.209Z,5.28
2022-09-04T02:28:16.390Z,5.38
2022-09-04T02:31:01.456Z,5.25
2022-09-04T02:33:31.244Z,4.90
2022-09-04T02:36:14.751Z,4.47
2022-09-04T02:38:58.549Z,6.05
2022-09-04T02:41:59.617Z,4.57
2022-09-04T02:44:32.745Z,4.40
2022-09-04T02:47:12.647Z,4.22
2022-09-04T02:50:13.254Z,4.88
2022-09-04T02:53:18.580Z,4.93
2022-09-04T02:55:54.889Z,5.20
2022-09-04T02:58:44.975Z,5.57
2022-09-04T03:01:35.446Z,5.80
2022-09-04T03:04:25.124Z,4.90
2022-09-04T03:07:13.771Z,5.10
2022-09-04T03:10:05.912Z,5.75
2022-09-04T03:12:39.381Z,5.93
2022-09-04T03:15:32.250Z,5.50
2022-09-04T03:18:07.289Z,5.47
2022-09-04T03:20:44.314Z,5.13
2022-09-04T03:23:29.645Z,6.55
2022-09-04T03:26:01.116Z,8.77
2022-09-04T03:28:32.260Z,6.40
2022-09-04T03:31:05.968Z,5.55
2022-09-04T03:33:45.429Z,5.38
2022-09-04T03:36:30.062Z,5.78
2022-09-04T03:39:09.124Z,6.20
2022-09-04T03:42:07.039Z,5.97
2022-09-04T03:44:57.679Z,5.90
2022-09-04T03:47:34.920Z,5.65
2022-09-04T03:50:08.039Z,5.43
2022-09-04T03:52:46.779Z,5.65
2022-09-04T03:55:56.665Z,4.97
2022-09-04T03:58:44.514Z,6.20
2022-09-04T04:01:34.650Z,6.32
2022-09-04T04:04:23.994Z,4.88
2022-09-04T04:07:11.929Z,5.47
2022-09-04T04:10:20.889Z,5.75
2022-09-04T04:13:16.054Z,5.93
2022-09-04T04:15:56.294Z,5.15
2022-09-04T04:18:39.460Z,4.90
2022-09-04T04:21:13.756Z,4.97
2022-09-04T04:24:18.424Z,6.65
2022-09-04T04:27:26.079Z,6.17
2022-09-04T04:30:09.596Z,6.93
2022-09-04T04:33:01.797Z,8.10
2022-09-04T04:35:41.199Z,7.30
2022-09-04T04:38:23.522Z,7.00
2022-09-04T04:41:09.330Z,7.37
2022-09-04T04:43:56.694Z,7.23
2022-09-04T04:46:46.886Z,6.80
2022-09-04T04:49:39.749Z,6.93
2022-09-04T04:52:24.514Z,6.40
2022-09-04T04:55:16.944Z,8.93
2022-09-04T04:58:06.859Z,6.23
2022-09-04T05:01:19.091Z,6.50
2022-09-04T05:04:03.610Z,6.40
2022-09-04T05:07:10.659Z,7.10
2022-09-04T05:10:11.484Z,6.30
2022-09-04T05:13:23.450Z,6.23
2022-09-04T05:16:28.137Z,6.17
2022-09-04T05:19:32.821Z,5.73
2022-09-04T05:22:44.909Z,5.87
2022-09-04T05:26:04.409Z,5.70
2022-09-04T05:29:06.420Z,5.20
2022-09-04T05:32:01.644Z,5.10
2022-09-04T05:35:23.184Z,4.67
2022-09-04T05:38:19.623Z,5.30
2022-09-04T05:41:23.465Z,4.90
2022-09-04T05:44:27.928Z,4.43
2022-09-04T05:47:49.629Z,4.00
2022-09-04T05:50:56.577Z,4.30
2022-09-04T05:54:03.408Z,4.60
2022-09-04T05:57:16.124Z,4.15
2022-09-04T06:00:18.101Z,3.80
2022-09-04T06:03:19.422Z,4.25
2022-09-04T06:06:19.359Z,4.32
2022-09-04T06:09:23.799Z,4.03
2022-09-04T06:12:09.544Z,3.83
2022-09-04T06:15:18.609Z,3.85
2022-09-04T06:18:13.290Z,4.90
2022-09-04T06:21:17.549Z,3.25
2022-09-04T06:24:12.315Z,3.30
2022-09-04T06:27:02.835Z,3.97
2022-09-04T06:29:50.550Z,3.22
2022-09-04T06:32:38.234Z,3.58
2022-09-04T06:35:45.594Z,3.13
2022-09-04T06:38:43.121Z,2.90
2022-09-04T06:41:40.443Z,3.60
2022-09-04T06:44:50.227Z,2.97
2022-09-04T06:47:34.289Z,2.90
2022-09-04T06:50:21.135Z,2.78
2022-09-04T06:53:29.619Z,2.70
2022-09-04T06:56:30.554Z,2.95
2022-09-04T06:59:42.984Z,2.60
2022-09-04T07:02:40.122Z,2.60
2022-09-04T07:05:29.114Z,2.67
2022-09-04T07:08:23.994Z,2.60
2022-09-04T07:11:28.809Z,5.15
2022-09-04T07:14:42.914Z,2.50
2022-09-04T07:17:51.814Z,2.58
2022-09-04T07:20:39.388Z,2.60
2022-09-04T07:23:45.484Z,2.40
2022-09-04T07:27:12.329Z,2.65
2022-09-04T07:30:24.876Z,2.25
2022-09-04T07:33:11.625Z,2.30
2022-09-04T07:36:15.874Z,2.50
2022-09-04T07:39:24.411Z,2.30
2022-09-04T07:42:34.080Z,1.90
2022-09-04T07:45:28.590Z,1.85
2022-09-04T07:48:36.171Z,2.30
2022-09-04T07:51:28.715Z,2.20
2022-09-04T07:54:33.950Z,2.88
2022-09-04T07:57:33.244Z,2.10
2022-09-04T08:00:19.026Z,2.10
2022-09-04T08:03:42.573Z,2.03
2022-09-04T08:06:48.768Z,2.47
2022-09-04T08:10:06.869Z,1.95
2022-09-04T08:13:05.999Z,2.97
2022-09-04T08:15:56.829Z,2.13
2022-09-04T08:19:14.809Z,2.30
2022-09-04T08:21:47.889Z,2.45
2022-09-04T08:24:56.729Z,2.95
2022-09-04T08:27:55.119Z,2.22
2022-09-04T08:30:26.374Z,1.80
2022-09-04T08:33:41.863Z,3.25
2022-09-04T08:36:47.854Z,2.78
2022-09-04T08:40:12.819Z,2.00
2022-09-04T08:43:14.415Z,2.15
2022-09-04T08:46:28.753Z,2.08
2022-09-04T08:49:42.609Z,2.25
2022-09-04T08:52:47.917Z,1.92
2022-09-04T08:55:34.750Z,2.30
2022-09-04T08:58:39.184Z,2.35
2022-09-04T09:01:26.101Z,2.20
2022-09-04T09:04:23.708Z,2.15
2022-09-04T09:10:41.974Z,2.30
2022-09-04T09:13:32.515Z,2.20
2022-09-04T09:16:36.905Z,2.50
2022-09-04T09:19:45.158Z,3.40
2022-09-04T09:22:51.034Z,2.45
2022-09-04T09:25:27.463Z,2.28
2022-09-04T09:28:50.083Z,2.38
2022-09-04T09:31:57.645Z,3.30
2022-09-04T09:35:10.043Z,2.15
2022-09-04T09:38:12.873Z,2.47
2022-09-04T09:41:17.015Z,2.50
2022-09-04T09:44:34.689Z,2.40
2022-09-04T09:47:27.453Z,3.30
2022-09-04T09:50:33.075Z,3.75
2022-09-04T09:53:47.539Z,2.70
2022-09-04T09:57:05.487Z,3.28
2022-09-04T10:00:12.449Z,2.58
2022-09-04T10:03:25.267Z,2.55
2022-09-04T10:07:08.359Z,2.72
2022-09-04T10:10:18.514Z,3.00
2022-09-04T10:13:23.394Z,2.83
2022-09-04T10:16:30.106Z,2.70
2022-09-04T10:19:49.233Z,2.90
2022-09-04T10:22:46.568Z,4.30
2022-09-04T10:25:44.525Z,2.80
2022-09-04T10:28:48.378Z,3.15
2022-09-04T10:31:53.992Z,2.80
2022-09-04T10:34:48.994Z,3.45
2022-09-04T10:38:02.483Z,3.67
2022-09-04T10:41:12.463Z,3.10
2022-09-04T10:44:23.769Z,3.15
2022-09-04T10:47:34.385Z,2.80
2022-09-04T10:50:15.734Z,2.78
2022-09-04T10:53:24.113Z,2.72
2022-09-04T10:56:46.948Z,2.90
2022-09-04T11:00:00.207Z,2.50
2022-09-04T11:03:07.673Z,2.70
2022-09-04T11:06:28.378Z,2.97
2022-09-04T11:09:22.684Z,2.30
2022-09-04T11:12:11.168Z,2.30
2022-09-04T11:15:15.603Z,4.53
2022-09-04T11:18:03.450Z,2.50
2022-09-04T11:21:08.388Z,2.40
2022-09-04T11:24:05.577Z,2.55
2022-09-04T11:27:16.095Z,2.40
2022-09-04T11:30:18.277Z,2.70
2022-09-04T11:33:17.780Z,2.80
2022-09-04T11:36:16.783Z,2.50
2022-09-04T11:39:09.999Z,2.10
2022-09-04T11:42:19.658Z,2.22
2022-09-04T11:45:14.718Z,2.42
2022-09-04T11:52:08.980Z,2.60
2022-09-04T11:55:15.279Z,2.70
2022-09-04T11:58:14.888Z,2.33
2022-09-04T12:01:03.090Z,2.28
2022-09-04T12:04:26.264Z,2.45
2022-09-04T12:07:40.671Z,1.90
2022-09-04T12:10:58.158Z,2.08
2022-09-04T12:13:47.383Z,2.30
2022-09-04T12:16:46.202Z,2.30
2022-09-04T12:20:07.954Z,2.42
2022-09-04T12:23:06.248Z,2.38
2022-09-04T12:26:16.589Z,2.50
2022-09-04T12:29:26.244Z,2.33
2022-09-04T12:32:14.508Z,2.25
2022-09-04T12:35:09.819Z,2.20
2022-09-04T12:38:18.649Z,4.60
2022-09-04T12:41:20.143Z,3.70
2022-09-04T12:44:24.898Z,2.30
2022-09-04T12:47:39.858Z,2.70
2022-09-04T12:50:45.903Z,2.33
2022-09-04T12:53:52.775Z,3.22
2022-09-04T12:57:15.632Z,3.78
2022-09-04T13:00:18.240Z,2.65
2022-09-04T13:03:45.283Z,2.90
2022-09-04T13:07:07.123Z,2.25
2022-09-04T13:10:10.564Z,3.13
2022-09-04T13:13:16.924Z,3.00
2022-09-04T13:16:04.124Z,2.92
2022-09-04T13:18:50.548Z,1.95
2022-09-04T13:21:47.109Z,2.30
2022-09-04T13:25:02.564Z,2.30
2022-09-04T13:27:56.679Z,2.30
2022-09-04T13:30:38.050Z,3.70
2022-09-04T13:33:49.101Z,2.30
2022-09-04T13:36:37.637Z,2.00
2022-09-04T13:39:41.944Z,1.95
2022-09-04T13:42:44.023Z,1.75
2022-09-04T13:45:31.050Z,1.50
2022-09-04T13:48:15.798Z,2.00
2022-09-04T13:50:52.689Z,2.03
2022-09-04T13:53:33.413Z,1.98
2022-09-04T13:56:33.631Z,1.92
2022-09-04T13:59:09.839Z,1.80
2022-09-04T14:01:48.214Z,1.50
2022-09-04T14:04:30.832Z,3.28
2022-09-04T14:07:11.648Z,2.00
2022-09-04T14:09:47.883Z,1.67
2022-09-04T14:12:55.319Z,1.70
2022-09-04T14:15:31.929Z,7.55
2022-09-04T14:18:18.673Z,2.50
2022-09-04T14:21:27.504Z,2.22
2022-09-04T14:24:19.474Z,2.45
2022-09-04T14:27:16.364Z,2.70
2022-09-04T14:30:11.229Z,3.10
2022-09-04T14:33:35.687Z,2.80
2022-09-04T14:36:59.216Z,3.30
2022-09-04T14:39:57.773Z,3.90
2022-09-04T14:42:56.876Z,3.42
2022-09-04T14:46:08.388Z,3.28
2022-09-04T14:48:49.769Z,3.10
2022-09-04T14:51:28.834Z,4.10
2022-09-04T14:54:00.669Z,3.97
2022-09-04T14:56:49.765Z,3.80
2022-09-04T14:59:56.650Z,3.63
2022-09-04T15:02:56.211Z,3.03
2022-09-04T15:06:03.028Z,4.15
2022-09-04T15:08:40.994Z,3.42
2022-09-04T15:12:04.351Z,4.45
2022-09-04T15:14:41.484Z,4.00
2022-09-04T15:17:22.801Z,5.10
2022-09-04T15:20:17.718Z,4.28
2022-09-04T15:23:20.610Z,4.80
2022-09-04T15:26:01.233Z,4.05
2022-09-04T15:28:56.329Z,4.45
2022-09-04T15:31:37.115Z,5.10
2022-09-04T15:34:07.998Z,6.47
2022-09-04T15:36:42.430Z,5.30
2022-09-04T15:39:24.281Z,4.78
2022-09-04T15:41:52.879Z,5.03
2022-09-04T15:44:56.589Z,5.18
2022-09-04T15:48:03.590Z,5.38
2022-09-04T15:50:59.564Z,5.35
2022-09-04T15:53:38.600Z,5.60
2022-09-04T15:56:36.268Z,6.97
2022-09-04T16:02:23.089Z,5.72
2022-09-04T16:05:15.186Z,6.03
2022-09-04T16:08:03.879Z,6.82
2022-09-04T16:10:58.101Z,6.55
2022-09-04T16:13:25.708Z,6.40
2022-09-04T16:16:04.366Z,6.15
2022-09-04T16:19:06.458Z,6.47
2022-09-04T16:21:56.838Z,6.10
2022-09-04T16:24:46.814Z,6.60
2022-09-04T16:27:21.377Z,6.88
2022-09-04T16:30:05.064Z,6.78
2022-09-04T16:32:35.400Z,6.40
2022-09-04T16:35:04.983Z,6.47
2022-09-04T16:37:42.808Z,7.13
2022-09-04T16:40:29.469Z,6.75
2022-09-04T16:43:00.224Z,6.38
2022-09-04T16:46:29.673Z,6.60
2022-09-04T16:49:04.868Z,6.35
2022-09-04T16:51:44.473Z,6.97
2022-09-04T16:54:19.574Z,6.78
2022-09-04T16:57:12.414Z,6.25
2022-09-04T16:59:55.352Z,6.43
2022-09-04T17:02:40.203Z,6.15
2022-09-04T17:05:40.269Z,5.78
2022-09-04T17:08:10.585Z,5.45
2022-09-04T17:10:43.448Z,5.35
2022-09-04T17:13:27.850Z,5.03
2022-09-04T17:16:17.942Z,5.30
2022-09-04T17:18:49.165Z,5.50
2022-09-04T17:26:18.087Z,7.15
2022-09-04T17:29:00.564Z,6.13
2022-09-04T17:29:09.740Z,5.18
2022-09-04T17:31:01.755Z,4.75
2022-09-04T17:40:44.054Z,5.22
2022-09-04T17:40:47.770Z,5.88
2022-09-04T17:40:49.261Z,5.32
2022-09-04T17:43:33.259Z,5.75
2022-09-04T17:46:32.581Z,6.05
2022-09-04T17:49:05.468Z,5.75
2022-09-04T17:51:33.869Z,5.85
2022-09-04T17:54:10.219Z,6.75
2022-09-04T17:56:58.871Z,5.97
2022-09-04T17:59:55.239Z,5.35
2022-09-04T18:02:27.081Z,5.80
2022-09-04T18:08:25.307Z,6.30
2022-09-04T18:11:23.048Z,6.68
2022-09-04T18:14:02.282Z,6.05
2022-09-04T18:16:47.546Z,5.97
2022-09-04T18:19:32.279Z,5.90
2022-09-04T18:22:25.769Z,6.07
2022-09-04T18:25:16.328Z,6.40
2022-09-04T18:27:47.480Z,6.63
2022-09-04T18:32:55.606Z,6.85
2022-09-04T18:37:12.870Z,6.55
2022-09-04T18:37:21.857Z,5.80
2022-09-04T18:39:32.806Z,6.45
2022-09-04T18:50:05.024Z,6.50
2022-09-04T18:50:29.500Z,8.68
2022-09-04T18:50:51.325Z,6.88
2022-09-04T18:51:20.117Z,6.53
2022-09-04T18:53:59.684Z,6.30
2022-09-04T18:56:44.054Z,6.80
2022-09-04T18:59:23.485Z,6.15
2022-09-04T19:02:04.115Z,6.63
2022-09-04T19:04:37.982Z,6.38
2022-09-04T19:07:23.228Z,6.13
2022-09-04T19:10:16.404Z,6.43
2022-09-04T19:12:58.890Z,5.85
2022-09-04T19:15:36.773Z,5.88
2022-09-04T19:18:45.386Z,5.85
2022-09-04T19:21:15.523Z,6.30
2022-09-04T19:24:01.225Z,7.53
2022-09-04T19:26:56.122Z,6.13
2022-09-04T19:29:32.108Z,6.80
2022-09-04T19:32:28.480Z,6.25
2022-09-04T19:35:19.017Z,5.82
2022-09-04T19:43:18.211Z,6.50
2022-09-04T19:46:06.570Z,6.65
2022-09-04T19:46:26.141Z,6.45
2022-09-04T19:46:49.648Z,5.70
2022-09-04T19:53:17.833Z,6.35
2022-09-04T19:53:35.189Z,7.15
2022-09-04T19:55:23.907Z,5.75
2022-09-04T19:58:34.166Z,5.63
2022-09-04T20:01:05.880Z,7.00
2022-09-04T20:03:46.242Z,6.13
2022-09-04T20:06:20.473Z,6.10
2022-09-04T20:09:15.202Z,5.97
2022-09-04T20:11:56.070Z,5.30
2022-09-04T20:14:53.752Z,5.22
2022-09-04T20:18:10.050Z,5.50
2022-09-04T20:20:55.368Z,5.25
2022-09-04T20:23:44.117Z,6.15
2022-09-04T20:26:20.438Z,6.28
2022-09-04T20:28:59.913Z,5.50
2022-09-04T20:31:39.149Z,5.63
2022-09-04T20:34:44.684Z,6.38
2022-09-04T20:37:22.769Z,7.25
2022-09-04T20:40:04.500Z,7.10
2022-09-04T20:42:36.114Z,7.60
2022-09-04T20:48:55.159Z,7.40
2022-09-04T20:52:42.997Z,6.97
2022-09-04T20:53:07.403Z,7.72
2022-09-04T20:54:37.124Z,7.50
2022-09-04T21:01:05.470Z,9.20
2022-09-04T21:03:13.968Z,7.47
2022-09-04T21:03:29.633Z,7.23
2022-09-04T21:06:35.794Z,7.65
2022-09-04T21:09:30.695Z,7.45
2022-09-04T21:12:16.495Z,7.53
2022-09-04T21:14:48.324Z,8.07
2022-09-04T21:17:55.044Z,8.07
2022-09-04T21:20:59.044Z,9.43
2022-09-04T21:23:46.467Z,7.57
2022-09-04T21:26:33.809Z,7.33
2022-09-04T21:29:27.885Z,8.17
2022-09-04T21:32:26.905Z,7.93
2022-09-04T21:34:57.605Z,6.30
2022-09-04T21:37:42.915Z,7.03
2022-09-04T21:40:50.968Z,6.63
2022-09-04T21:43:40.325Z,7.53
2022-09-04T21:46:35.163Z,7.35
2022-09-04T21:49:29.885Z,7.40
2022-09-04T21:52:02.774Z,6.35
2022-09-04T21:56:38.067Z,6.43
2022-09-04T22:02:29.605Z,7.95
2022-09-04T22:02:36.660Z,7.72
2022-09-04T22:03:34.897Z,7.10
2022-09-04T22:08:51.162Z,7.57
2022-09-04T22:13:33.047Z,7.07
2022-09-04T22:13:41.410Z,7.20
2022-09-04T22:15:54.576Z,7.35
2022-09-04T22:18:33.909Z,6.80
2022-09-04T22:21:24.725Z,6.57
2022-09-04T22:24:00.589Z,6.85
2022-09-04T22:26:52.544Z,6.00
2022-09-04T22:29:50.733Z,6.25
2022-09-04T22:32:28.698Z,6.32
2022-09-04T22:35:27.764Z,6.10
2022-09-04T22:38:26.553Z,5.10
2022-09-04T22:41:05.916Z,6.20
2022-09-04T22:43:46.462Z,6.38
2022-09-04T22:46:45.406Z,6.05
2022-09-04T22:49:39.084Z,6.35
2022-09-04T22:52:12.052Z,8.38
2022-09-04T22:55:39.993Z,8.43
2022-09-04T22:58:26.684Z,8.40
2022-09-04T23:01:28.355Z,8.47
2022-09-04T23:04:43.785Z,8.43
2022-09-04T23:12:30.305Z,8.93
2022-09-04T23:13:49.105Z,7.93
2022-09-04T23:13:58.086Z,8.13
2022-09-04T23:16:49.806Z,7.10
2022-09-04T23:26:31.400Z,7.13
2022-09-04T23:26:46.604Z,6.38
2022-09-04T23:26:48.451Z,6.68
2022-09-04T23:29:16.045Z,6.68
2022-09-04T23:32:32.873Z,7.17
2022-09-04T23:35:23.238Z,8.18
2022-09-04T23:38:00.433Z,9.13
2022-09-04T23:40:55.119Z,9.50
2022-09-04T23:43:37.144Z,10.33
2022-09-04T23:46:28.893Z,9.60
2022-09-04T23:49:20.194Z,9.53
2022-09-04T23:52:48.593Z,9.73
2022-09-04T23:55:44.999Z,8.97
2022-09-04T23:59:00.164Z,9.00
